createdAt,value
2022-09-30T00:01:52.695Z,8.40
2022-09-30T00:04:56.543Z,8.34
2022-09-30T00:08:00.035Z,8.28
2022-09-30T00:11:08.479Z,8.22
2022-09-30T00:14:19.111Z,8.15
2022-09-30T00:17:22.735Z,8.12
2022-09-30T00:20:26.303Z,8.07
2022-09-30T00:23:30.162Z,8.04
2022-09-30T00:26:37.131Z,8.00
2022-09-30T00:29:40.773Z,7.96
2022-09-30T00:32:44.362Z,7.93
2022-09-30T00:35:47.994Z,7.93
2022-09-30T00:38:51.584Z,7.88
2022-09-30T00:42:01.564Z,7.82
2022-09-30T00:45:09.624Z,7.76
2022-09-30T00:48:20.445Z,7.72
2022-09-30T00:51:34.161Z,7.65
2022-09-30T00:54:37.836Z,7.65
2022-09-30T00:57:42.793Z,7.66
2022-09-30T01:00:46.770Z,7.64
2022-09-30T01:03:55.558Z,7.60
2022-09-30T01:07:02.982Z,7.53
2022-09-30T01:10:07.630Z,7.52
2022-09-30T01:13:15.028Z,7.46
2022-09-30T01:16:49.932Z,7.42
2022-09-30T01:20:50.671Z,7.37
2022-09-30T01:24:47.392Z,7.34
2022-09-30T01:28:40.891Z,7.35
2022-09-30T01:31:56.943Z,7.32
2022-09-30T01:35:18.382Z,7.28
2022-09-30T01:38:29.988Z,7.28
2022-09-30T01:41:48.728Z,7.25
2022-09-30T01:45:03.838Z,7.24
2022-09-30T01:48:19.739Z,7.21
2022-09-30T01:51:34.331Z,7.19
2022-09-30T01:54:47.963Z,7.18
2022-09-30T01:58:02.102Z,7.09
2022-09-30T02:01:13.896Z,7.03
2022-09-30T02:04:26.376Z,6.98
2022-09-30T02:07:38.059Z,7.00
2022-09-30T02:10:53.193Z,6.97
2022-09-30T02:14:06.115Z,7.01
2022-09-30T02:17:19.882Z,6.98
2022-09-30T02:20:29.001Z,6.98
2022-09-30T02:23:38.815Z,6.95
2022-09-30T02:26:46.721Z,6.90
2022-09-30T02:29:58.943Z,6.89
2022-09-30T02:33:11.361Z,6.92
2022-09-30T02:36:23.226Z,6.87
2022-09-30T02:39:39.332Z,6.95
2022-09-30T02:42:47.027Z,6.99
2022-09-30T02:46:06.665Z,7.00
2022-09-30T02:49:20.623Z,7.07
2022-09-30T02:52:36.171Z,7.02
2022-09-30T02:56:09.835Z,7.06
2022-09-30T02:59:14.790Z,6.96
2022-09-30T03:02:19.165Z,6.89
2022-09-30T03:05:22.875Z,6.87
2022-09-30T03:08:28.283Z,6.94
2022-09-30T03:11:33.826Z,6.96
2022-09-30T03:15:03.231Z,6.84
2022-09-30T03:18:30.876Z,6.78
2022-09-30T03:22:02.030Z,6.72
2022-09-30T03:25:25.074Z,6.65
2022-09-30T03:28:35.882Z,6.61
2022-09-30T03:31:55.259Z,6.57
2022-09-30T03:35:17.519Z,6.52
2022-09-30T03:38:41.222Z,6.47
2022-09-30T03:41:54.182Z,6.43
2022-09-30T03:45:07.155Z,6.51
2022-09-30T03:48:16.506Z,6.39
2022-09-30T03:51:21.916Z,6.31
2022-09-30T03:54:25.973Z,6.24
2022-09-30T03:57:31.757Z,6.19
2022-09-30T04:00:35.449Z,6.13
2022-09-30T04:03:38.991Z,6.07
2022-09-30T04:06:42.618Z,6.08
2022-09-30T04:09:46.245Z,6.05
2022-09-30T04:12:54.603Z,5.99
2022-09-30T04:15:58.544Z,5.96
2022-09-30T04:19:02.251Z,5.96
2022-09-30T04:22:05.887Z,5.96
2022-09-30T04:25:10.501Z,5.91
2022-09-30T04:28:15.374Z,5.83
2022-09-30T04:31:19.627Z,5.79
2022-09-30T04:34:23.159Z,5.78
2022-09-30T04:37:26.751Z,5.73
2022-09-30T04:40:30.233Z,5.75
2022-09-30T04:43:35.954Z,5.66
2022-09-30T04:46:39.510Z,5.65
2022-09-30T04:49:43.079Z,5.63
2022-09-30T04:52:46.743Z,5.57
2022-09-30T04:55:50.928Z,5.55
2022-09-30T04:58:55.885Z,5.53
2022-09-30T05:01:59.440Z,5.53
2022-09-30T05:05:03.987Z,5.54
2022-09-30T05:08:07.801Z,5.54
2022-09-30T05:11:17.495Z,5.51
2022-09-30T05:14:22.423Z,5.50
2022-09-30T05:17:26.072Z,5.46
2022-09-30T05:20:30.111Z,5.45
2022-09-30T05:23:34.531Z,5.42
2022-09-30T05:26:38.155Z,5.41
2022-09-30T05:29:43.287Z,5.41
2022-09-30T05:32:46.911Z,5.43
2022-09-30T05:35:50.738Z,5.43
2022-09-30T05:38:54.626Z,5.39
2022-09-30T05:41:58.602Z,5.34
2022-09-30T05:45:03.739Z,5.33
2022-09-30T05:48:07.945Z,5.33
2022-09-30T05:51:12.797Z,5.39
2022-09-30T05:54:17.027Z,5.56
2022-09-30T05:57:21.050Z,5.62
2022-09-30T06:00:25.978Z,5.66
2022-09-30T06:03:29.535Z,5.62
2022-09-30T06:06:33.050Z,5.64
2022-09-30T06:09:37.033Z,5.61
2022-09-30T06:12:41.325Z,5.64
2022-09-30T06:15:57.165Z,5.62
2022-09-30T06:19:00.826Z,5.71
2022-09-30T06:22:04.470Z,5.82
2022-09-30T06:25:09.143Z,5.91
2022-09-30T06:28:13.111Z,6.01
2022-09-30T06:31:18.125Z,6.09
2022-09-30T06:34:21.690Z,6.07
2022-09-30T06:37:26.070Z,6.14
2022-09-30T06:40:29.630Z,6.24
2022-09-30T06:43:41.024Z,6.34
2022-09-30T06:46:59.874Z,6.54
2022-09-30T06:50:03.574Z,6.69
2022-09-30T06:53:09.719Z,6.82
2022-09-30T06:56:13.850Z,6.95
2022-09-30T06:59:18.726Z,7.07
2022-09-30T07:02:23.894Z,7.24
2022-09-30T07:05:28.227Z,7.42
2022-09-30T07:08:34.958Z,7.57
2022-09-30T07:11:39.611Z,7.68
2022-09-30T07:14:43.218Z,7.83
2022-09-30T07:17:53.028Z,7.88
2022-09-30T07:20:58.535Z,7.98
2022-09-30T07:24:02.611Z,8.14
2022-09-30T07:27:06.328Z,8.29
2022-09-30T07:30:21.518Z,8.27
2022-09-30T07:33:32.680Z,8.44
2022-09-30T07:36:38.843Z,8.44
2022-09-30T07:39:43.139Z,8.61
2022-09-30T07:42:46.668Z,8.78
2022-09-30T07:45:51.758Z,8.81
2022-09-30T07:49:01.500Z,8.86
2022-09-30T07:52:05.892Z,9.05
2022-09-30T07:55:10.051Z,9.13
2022-09-30T07:58:13.758Z,9.38
2022-09-30T08:01:17.622Z,9.56
2022-09-30T08:04:24.285Z,9.55
2022-09-30T08:07:27.816Z,9.72
2022-09-30T08:10:36.162Z,9.84
2022-09-30T08:13:40.056Z,10.09
2022-09-30T08:16:44.256Z,10.18
2022-09-30T08:19:49.495Z,10.09
2022-09-30T08:22:54.722Z,10.21
2022-09-30T08:26:03.815Z,10.36
2022-09-30T08:29:08.246Z,10.47
2022-09-30T08:32:12.742Z,10.53
2022-09-30T08:35:18.413Z,10.76
2022-09-30T08:38:21.951Z,10.78
2022-09-30T08:42:19.087Z,11.01
2022-09-30T08:45:59.440Z,11.18
2022-09-30T08:49:17.573Z,11.31
2022-09-30T08:52:37.367Z,11.41
2022-09-30T08:55:48.875Z,11.65
2022-09-30T08:58:57.227Z,11.79
2022-09-30T09:02:17.540Z,11.91
2022-09-30T09:05:40.340Z,11.93
2022-09-30T09:09:09.840Z,12.12
2022-09-30T09:12:31.104Z,12.16
2022-09-30T09:15:52.048Z,12.30
2022-09-30T09:19:11.450Z,12.31
2022-09-30T09:22:15.687Z,12.38
2022-09-30T09:25:28.118Z,12.33
2022-09-30T09:28:41.594Z,12.30
2022-09-30T09:31:45.485Z,12.41
2022-09-30T09:34:56.810Z,12.28
2022-09-30T09:38:26.240Z,12.35
2022-09-30T09:41:45.044Z,12.37
2022-09-30T09:44:57.781Z,12.31
2022-09-30T09:48:01.396Z,12.49
2022-09-30T09:51:20.974Z,12.48
2022-09-30T09:54:28.711Z,12.52
2022-09-30T09:57:33.870Z,12.65
2022-09-30T10:00:55.312Z,12.79
2022-09-30T10:04:17.878Z,13.01
2022-09-30T10:07:22.364Z,13.15
2022-09-30T10:10:27.022Z,13.21
2022-09-30T10:13:42.742Z,13.34
2022-09-30T10:16:46.410Z,13.41
2022-09-30T10:19:56.202Z,12.96
2022-09-30T10:23:11.437Z,12.95
2022-09-30T10:26:22.257Z,13.03
2022-09-30T10:29:33.396Z,13.05
2022-09-30T10:32:37.748Z,13.08
2022-09-30T10:36:03.971Z,13.23
2022-09-30T10:39:18.206Z,13.46
2022-09-30T10:42:26.996Z,13.65
2022-09-30T10:45:41.368Z,13.73
2022-09-30T10:48:54.391Z,13.71
2022-09-30T10:51:59.913Z,13.86
2022-09-30T10:55:13.961Z,13.77
2022-09-30T10:58:31.974Z,13.66
2022-09-30T11:01:44.891Z,13.48
2022-09-30T11:04:58.996Z,13.43
2022-09-30T11:08:12.203Z,13.43
2022-09-30T11:11:23.020Z,13.80
2022-09-30T11:14:43.523Z,13.92
2022-09-30T11:17:58.672Z,13.97
2022-09-30T11:21:10.067Z,14.28
2022-09-30T11:24:30.158Z,14.42
2022-09-30T11:27:51.761Z,14.30
2022-09-30T11:31:09.357Z,14.28
2022-09-30T11:34:37.639Z,14.36
2022-09-30T11:38:03.855Z,14.29
2022-09-30T11:41:21.035Z,14.28
2022-09-30T11:44:35.527Z,14.43
2022-09-30T11:48:03.470Z,14.56
2022-09-30T11:51:21.019Z,14.41
2022-09-30T11:54:46.873Z,14.65
2022-09-30T11:58:08.430Z,14.65
2022-09-30T12:01:30.498Z,14.42
2022-09-30T12:04:40.647Z,14.62
2022-09-30T12:07:51.127Z,14.72
2022-09-30T12:10:58.803Z,14.71
2022-09-30T12:14:12.756Z,14.90
2022-09-30T12:17:31.397Z,14.72
2022-09-30T12:20:42.888Z,14.43
2022-09-30T12:23:59.017Z,14.19
2022-09-30T12:27:03.526Z,14.23
2022-09-30T12:30:19.392Z,14.41
2022-09-30T12:33:51.286Z,14.86
2022-09-30T12:37:22.553Z,14.89
2022-09-30T12:40:52.358Z,14.68
2022-09-30T12:44:41.102Z,14.98
2022-09-30T12:47:51.245Z,15.26
2022-09-30T12:50:58.735Z,15.02
2022-09-30T12:54:12.998Z,14.80
2022-09-30T12:57:25.455Z,14.81
2022-09-30T13:00:34.824Z,14.63
2022-09-30T13:03:53.363Z,14.59
2022-09-30T13:07:23.230Z,14.68
2022-09-30T13:10:31.267Z,14.80
2022-09-30T13:14:02.111Z,14.84
2022-09-30T13:17:36.294Z,14.67
2022-09-30T13:20:56.523Z,14.82
2022-09-30T13:24:00.680Z,15.10
2022-09-30T13:27:15.666Z,14.98
2022-09-30T13:30:46.708Z,15.20
2022-09-30T13:34:11.544Z,15.04
2022-09-30T13:37:39.620Z,14.79
2022-09-30T13:41:01.661Z,14.75
2022-09-30T13:44:16.114Z,15.12
2022-09-30T13:47:29.488Z,14.80
2022-09-30T13:50:46.981Z,14.61
2022-09-30T13:53:55.364Z,14.87
2022-09-30T13:57:00.966Z,14.82
2022-09-30T14:00:12.696Z,14.61
2022-09-30T14:03:44.804Z,14.54
2022-09-30T14:07:07.656Z,14.96
2022-09-30T14:10:42.172Z,15.05
2022-09-30T14:14:07.775Z,15.09
2022-09-30T14:17:37.932Z,14.93
2022-09-30T14:21:06.142Z,15.01
2022-09-30T14:24:16.216Z,15.06
2022-09-30T14:27:46.680Z,14.82
2022-09-30T14:31:04.289Z,14.71
2022-09-30T14:34:14.176Z,15.06
2022-09-30T14:37:29.123Z,15.09
2022-09-30T14:40:36.995Z,15.18
2022-09-30T14:43:49.255Z,14.99
2022-09-30T14:47:00.252Z,14.82
2022-09-30T14:50:05.108Z,14.64
2022-09-30T14:53:27.054Z,14.67
2022-09-30T14:56:35.540Z,14.56
2022-09-30T14:59:43.741Z,14.79
2022-09-30T15:02:48.027Z,14.72
2022-09-30T15:05:52.123Z,14.54
2022-09-30T15:09:05.257Z,14.53
2022-09-30T15:12:17.856Z,14.62
2022-09-30T15:15:37.452Z,14.67
2022-09-30T15:18:47.983Z,14.54
2022-09-30T15:21:56.324Z,14.46
2022-09-30T15:25:01.902Z,14.27
2022-09-30T15:28:09.052Z,14.33
2022-09-30T15:31:24.826Z,14.22
2022-09-30T15:34:30.462Z,14.09
2022-09-30T15:37:35.192Z,14.03
2022-09-30T15:40:49.537Z,13.94
2022-09-30T15:43:54.818Z,13.94
2022-09-30T15:47:08.168Z,13.89
2022-09-30T15:50:38.684Z,13.83
2022-09-30T15:53:50.126Z,13.82
2022-09-30T15:56:55.423Z,13.71
2022-09-30T16:00:02.243Z,13.70
2022-09-30T16:03:28.961Z,13.54
2022-09-30T16:06:37.476Z,13.49
2022-09-30T16:09:43.116Z,13.42
2022-09-30T16:12:49.536Z,13.36
2022-09-30T16:15:55.562Z,13.28
2022-09-30T16:19:02.373Z,13.13
2022-09-30T16:22:06.279Z,13.07
2022-09-30T16:25:21.104Z,12.99
2022-09-30T16:28:26.344Z,12.86
2022-09-30T16:31:31.174Z,12.77
2022-09-30T16:34:39.562Z,12.77
2022-09-30T16:37:44.222Z,12.70
2022-09-30T16:40:47.910Z,12.52
2022-09-30T16:43:52.842Z,12.46
2022-09-30T16:46:56.931Z,12.38
2022-09-30T16:50:00.671Z,12.24
2022-09-30T16:53:04.593Z,12.26
2022-09-30T16:56:12.684Z,12.07
2022-09-30T16:59:19.731Z,12.03
2022-09-30T17:02:23.354Z,12.10
2022-09-30T17:05:28.251Z,11.89
2022-09-30T17:08:32.126Z,11.83
2022-09-30T17:11:38.116Z,11.75
2022-09-30T17:14:44.014Z,11.75
2022-09-30T17:17:48.094Z,11.63
2022-09-30T17:20:53.148Z,11.57
2022-09-30T17:23:57.961Z,11.44
2022-09-30T17:27:01.706Z,11.31
2022-09-30T17:30:09.730Z,11.26
2022-09-30T17:33:13.516Z,11.22
2022-09-30T17:36:19.011Z,11.11
2022-09-30T17:39:22.606Z,11.05
2022-09-30T17:42:43.621Z,10.97
2022-09-30T17:45:52.373Z,10.87
2022-09-30T17:48:57.902Z,10.81
2022-09-30T17:52:01.793Z,10.81
2022-09-30T17:55:06.138Z,10.70
2022-09-30T17:58:11.608Z,10.62
2022-09-30T18:01:18.766Z,10.54
2022-09-30T18:04:23.382Z,10.54
2022-09-30T18:07:28.149Z,10.63
2022-09-30T18:10:31.816Z,10.51
2022-09-30T18:13:35.598Z,10.51
2022-09-30T18:16:41.542Z,10.51
2022-09-30T18:19:45.603Z,10.38
2022-09-30T18:22:49.214Z,10.43
2022-09-30T18:25:54.696Z,10.30
2022-09-30T18:28:59.164Z,10.38
2022-09-30T18:32:04.358Z,10.37
2022-09-30T18:35:12.316Z,10.24
2022-09-30T18:38:16.202Z,10.24
2022-09-30T18:41:20.062Z,10.21
2022-09-30T18:44:23.659Z,10.22
2022-09-30T18:47:29.284Z,10.19
2022-09-30T18:50:34.604Z,10.20
2022-09-30T18:53:38.862Z,10.07
2022-09-30T18:56:44.166Z,10.10
2022-09-30T18:59:48.016Z,10.11
2022-09-30T19:02:53.904Z,10.07
2022-09-30T19:05:57.790Z,9.90
2022-09-30T19:09:01.387Z,9.95
2022-09-30T19:12:05.532Z,9.90
2022-09-30T19:15:13.415Z,9.88
2022-09-30T19:18:18.647Z,9.82
2022-09-30T19:21:23.635Z,9.78
2022-09-30T19:24:28.479Z,9.76
2022-09-30T19:27:33.210Z,9.67
2022-09-30T19:30:42.263Z,9.61
2022-09-30T19:33:56.141Z,9.60
2022-09-30T19:37:00.321Z,9.62
2022-09-30T19:40:16.162Z,9.59
2022-09-30T19:43:23.792Z,9.46
2022-09-30T19:46:28.547Z,9.40
2022-09-30T19:49:33.709Z,9.39
2022-09-30T19:52:45.395Z,9.37
2022-09-30T19:56:02.065Z,9.33
2022-09-30T19:59:06.327Z,9.28
2022-09-30T20:02:12.889Z,9.37
2022-09-30T20:05:18.574Z,9.29
2022-09-30T20:08:22.447Z,9.22
2022-09-30T20:11:26.434Z,9.15
2022-09-30T20:14:47.365Z,9.11
2022-09-30T20:17:50.920Z,9.12
2022-09-30T20:20:56.308Z,9.01
2022-09-30T20:23:59.980Z,9.01
2022-09-30T20:27:03.773Z,8.98
2022-09-30T20:30:08.750Z,8.96
2022-09-30T20:33:17.190Z,8.98
2022-09-30T20:36:22.789Z,8.92
2022-09-30T20:39:26.361Z,8.92
2022-09-30T20:42:32.843Z,8.85
2022-09-30T20:46:00.299Z,8.77
2022-09-30T20:49:04.889Z,8.80
2022-09-30T20:52:10.279Z,8.82
2022-09-30T20:55:13.844Z,8.79
2022-09-30T20:58:17.479Z,8.73
2022-09-30T21:01:24.935Z,8.82
2022-09-30T21:04:28.902Z,8.87
2022-09-30T21:07:35.983Z,8.83
2022-09-30T21:10:39.596Z,8.75
2022-09-30T21:13:44.938Z,8.82
2022-09-30T21:16:48.607Z,8.81
2022-09-30T21:19:52.308Z,8.92
2022-09-30T21:22:57.430Z,8.95
2022-09-30T21:26:02.594Z,9.05
2022-09-30T21:29:06.372Z,9.07
2022-09-30T21:32:10.011Z,9.13
2022-09-30T21:35:15.134Z,9.15
2022-09-30T21:38:20.876Z,9.18
2022-09-30T21:41:24.479Z,9.10
2022-09-30T21:44:28.126Z,9.17
2022-09-30T21:47:31.826Z,9.17
2022-09-30T21:50:36.315Z,9.18
2022-09-30T21:53:41.924Z,9.17
2022-09-30T21:56:45.560Z,9.17
2022-09-30T21:59:50.548Z,9.19
2022-09-30T22:02:54.363Z,9.26
2022-09-30T22:06:00.572Z,9.36
2022-09-30T22:09:05.776Z,9.36
2022-09-30T22:12:09.707Z,9.33
2022-09-30T22:15:13.311Z,9.39
2022-09-30T22:18:19.060Z,9.28
2022-09-30T22:21:23.273Z,9.28
2022-09-30T22:24:28.332Z,9.29
2022-09-30T22:27:32.859Z,9.34
2022-09-30T22:30:36.543Z,9.42
2022-09-30T22:33:57.791Z,9.43
2022-09-30T22:37:18.892Z,9.47
2022-09-30T22:40:23.835Z,9.57
2022-09-30T22:43:28.280Z,9.53
2022-09-30T22:46:34.771Z,9.56
2022-09-30T22:49:38.517Z,9.63
2022-09-30T22:52:42.551Z,9.66
2022-09-30T22:55:47.518Z,9.70
2022-09-30T22:58:51.083Z,9.78
2022-09-30T23:01:55.468Z,9.75
2022-09-30T23:04:59.743Z,9.78
2022-09-30T23:08:04.285Z,9.84
2022-09-30T23:11:10.810Z,9.86
2022-09-30T23:14:14.728Z,9.90
2022-09-30T23:17:18.292Z,9.88
2022-09-30T23:20:21.972Z,9.79
2022-09-30T23:23:25.857Z,10.01
2022-09-30T23:26:31.885Z,10.01
2022-09-30T23:29:35.765Z,9.94
2022-09-30T23:32:39.428Z,9.97
2022-09-30T23:35:46.879Z,9.99
2022-09-30T23:38:50.543Z,9.96
2022-09-30T23:41:57.028Z,10.03
2022-09-30T23:45:00.684Z,10.03
2022-09-30T23:48:04.432Z,9.98
2022-09-30T23:51:08.942Z,9.90
2022-09-30T23:54:12.477Z,9.95
2022-09-30T23:57:17.486Z,9.94
